• Join FlightAware (Why Join?)
  • Login
  • US Flag 
03:14PM EDT


 

Airport Tracker/Info


-or-


 

Live Flight TrackerFlight Track Log ✈ N561EJ ✈ 23-Apr-2013 ✈ KOKC - KMOB

Flight Track Log - Related Links

Times and Time Zones

All times are in EDT time to prevent confusion due to time zone crossing. See the N561EJ flight status page for this flight to view local times or setup timezone preferences in your user account.

Time Position Orientation Groundspeed Altitude Reporting Facility
EDT Latitude Longitude Course Direction KTS MPH feet Rate Location/Type
04:28PM 35.3997 -97.5944 35° Northeast 150 173 2,100  Level Fort Worth Center
04:29PM 35.4417 -97.5589 35° Northeast 227 261 4,800 2,700 Climbing Fort Worth Center
04:30PM 35.4353 -97.4544 94° East 250 288 8,300 2,220 Climbing Fort Worth Center
04:31PM 35.4167 -97.3703 105° East 255 293 10,100 1,680 Climbing Fort Worth Center
04:32PM 35.3728 -97.2864 123° Southeast 267 307 11,700 1,620 Climbing Fort Worth Center
04:33PM 35.3308 -97.1947 119° Southeast 293 337 13,400 1,560 Climbing Fort Worth Center
04:34PM 35.2869 -97.1058 121° Southeast 313 360 14,900 1,560 Climbing Fort Worth Center
04:35PM 35.2408 -97.0094 120° Southeast 325 374 16,600 1,500 Climbing Fort Worth Center
04:36PM 35.1944 -96.9056 119° Southeast 335 386 18,000 1,500 Climbing Fort Worth Center
04:37PM 35.1461 -96.8017 120° Southeast 340 391 19,700 1,620 Climbing Fort Worth Center
04:38PM 35.0933 -96.6928 121° Southeast 353 406 21,300 1,620 Climbing Fort Worth Center
04:39PM 35.0447 -96.5842 119° Southeast 353 406 23,000 1,620 Climbing Fort Worth Center
04:40PM 34.9939 -96.4758 120° Southeast 358 412 24,600 1,620 Climbing Fort Worth Center
04:41PM 34.9431 -96.3675 120° Southeast 358 412 26,300 1,620 Climbing Fort Worth Center
04:42PM 34.8900 -96.2567 120° Southeast 358 412 27,900 1,620 Climbing Fort Worth Center
04:43PM 34.8389 -96.1486 120° Southeast 358 412 29,600 1,500 Climbing Fort Worth Center
04:44PM 34.7878 -96.0431 121° Southeast 358 412 30,900 660 Climbing Fort Worth Center
04:45PM 34.7342 -95.9278 119° Southeast 363 418 31,000  Climbing Fort Worth Center
04:46PM 34.6742 -95.8050 121° Southeast 392 451 31,000  Level Fort Worth Center
04:47PM 34.6100 -95.6750 121° Southeast 425 489 31,000 420 Level Fort Worth Center
04:48PM 34.5453 -95.5253 118° Southeast 446 513 31,900 1,200 Climbing Fort Worth Center
04:49PM 34.4808 -95.4031 123° Southeast 444 511 33,400 1,320 Climbing Fort Worth Center
04:50PM 34.4289 -95.2986 121° Southeast 430 495 34,600 1,260 Climbing Fort Worth Center
04:51PM 34.3747 -95.1817 119° Southeast 407 468 36,000 1,260 Climbing Fort Worth Center
04:52PM 34.3206 -95.0700 120° Southeast 397 457 37,200 1,140 Climbing Fort Worth Center
04:53PM 34.2683 -94.9583 119° Southeast 387 445 38,300 900 Climbing Fort Worth Center
04:54PM 34.2161 -94.8492 120° Southeast 381 438 39,100 660 Climbing Fort Worth Center
04:55PM 34.1617 -94.7403 121° Southeast 381 438 39,700 480 Climbing Fort Worth Center
04:56PM 34.1050 -94.6292 122° Southeast 381 438 40,100 420 Climbing Fort Worth Center
04:57PM 34.0522 -94.5181 120° Southeast 381 438 40,600 420 Climbing Fort Worth Center
04:58PM 33.9956 -94.4047 121° Southeast 381 438 41,000 180 Climbing Fort Worth Center
04:59PM 33.9383 -94.2892 121° Southeast 391 450 41,000  Level Fort Worth Center
05:00PM 33.8789 -94.1686 121° Southeast 402 463 41,000  Level Fort Worth Center
05:01PM 33.8194 -94.0508 121° Southeast 402 463 41,000  Level Fort Worth Center
05:02PM 33.7556 -93.9258 122° Southeast 417 480 41,000  Level Fort Worth Center
05:03PM 33.6958 -93.8011 120° Southeast 422 486 41,000  Level Fort Worth Center
05:04PM 33.6314 -93.6739 121° Southeast 432 497 41,000  Level Fort Worth Center
05:05PM 33.5650 -93.5447 122° Southeast 444 511 41,000  Level Fort Worth Center
05:06PM 33.4983 -93.4181 122° Southeast 444 511 41,000  Level Fort Worth Center
05:07PM 33.4269 -93.2769 121° Southeast 444 511 41,000  Level Fort Worth Center
05:08PM 33.3622 -93.1483 121° Southeast 444 511 41,000  Level Fort Worth Center
05:09PM 33.2931 -93.0172 122° Southeast 449 517 41,000  Level Fort Worth Center
05:10PM 33.2258 -92.8867 122° Southeast 455 524 41,000  Level Fort Worth Center
05:11PM 33.1583 -92.7561 122° Southeast 462 532 41,000  Level Fort Worth Center
05:12PM 33.0908 -92.6258 122° Southeast 462 532 41,000  Level Fort Worth Center
05:13PM 33.0211 -92.4933 122° Southeast 467 537 41,000  Level Fort Worth Center
05:14PM 32.9511 -92.3633 123° Southeast 467 537 41,000  Level Fort Worth Center
05:15PM 32.8831 -92.2314 122° Southeast 467 537 41,000  Level Fort Worth Center
05:16PM 32.8150 -92.0992 121° Southeast 467 537 41,000  Level Fort Worth Center
05:18PM 32.6839 -91.8678 124° Southeast 489 563 41,000  Level Memphis Center
05:19PM 32.6142 -91.7383 123° Southeast 481 554 41,000  Level Memphis Center
05:20PM 32.5447 -91.6044 122° Southeast 481 554 41,000  Level Memphis Center
05:21PM 32.4750 -91.4753 123° Southeast 481 554 41,000  Level Memphis Center
05:22PM 32.4031 -91.3392 122° Southeast 481 554 41,000  Level Memphis Center
05:23PM 32.3331 -91.2106 123° Southeast 481 554 41,000  Level Memphis Center
05:24PM 32.2525 -91.0647 123° Southeast 481 554 41,000  Level Memphis Center
05:25PM 32.1842 -90.9342 122° Southeast 481 554 41,000  Level Memphis Center
05:26PM 32.1117 -90.8011 123° Southeast 481 554 41,000  Level Memphis Center
05:27PM 32.0389 -90.6711 123° Southeast 481 554 41,000 -960 Level Memphis Center
05:28PM 31.9619 -90.5361 124° Southeast 486 559 39,100 -1,980 Descending Memphis Center
05:29PM 31.8892 -90.4039 123° Southeast 491 565 37,100 -2,040 Descending Memphis Center
05:30PM 31.8169 -90.2778 124° Southeast 488 562 35,100 -2,040 Descending Houston Center
05:31PM 31.7458 -90.1472 123° Southeast 477 549 33,000 -2,040 Descending Houston Center
05:32PM 31.6750 -90.0228 124° Southeast 462 532 30,900 -2,040 Descending Houston Center
05:33PM 31.6058 -89.8997 123° Southeast 454 522 28,900 -1,920 Descending Houston Center
05:34PM 31.5372 -89.7772 123° Southeast 449 517 27,000 -2,100 Descending Houston Center
05:35PM 31.4581 -89.6383 124° Southeast 429 494 24,600 -2,040 Descending Houston Center
05:36PM 31.4019 -89.5386 123° Southeast 405 466 22,800 -1,680 Descending Houston Center
05:37PM 31.3625 -89.4211 111° Southeast 397 457 21,200 -1,740 Descending Houston Center
05:38PM 31.3294 -89.2728 105° East 395 455 19,300 -1,680 Descending Houston Center
05:39PM 31.3103 -89.1467 100° East 394 453 17,800 -1,500 Descending Houston Center
05:40PM 31.2906 -89.0258 101° East 385 443 16,200 -1,560 Descending Houston Center
05:41PM 31.2561 -88.9244 112° Southeast 354 407 14,600 -1,560 Descending Houston Center
05:42PM 31.1897 -88.8450 134° Southeast 345 397 13,000 -1,560 Descending Houston Center
05:44PM 31.1283 -88.7689 133° Southeast 330 380 11,400 -1,800 Descending Houston Center
05:45PM 31.0567 -88.6842 135° Southeast 314 361 9,400 -1,980 Descending Houston Center
05:46PM 31.0044 -88.6203 134° Southeast 286 329 7,400 -1,920 Descending Houston Center
05:47PM 30.9544 -88.5594 134° Southeast 269 310 5,500 -1,500 Descending Houston Center
05:48PM 30.9075 -88.5033 134° Southeast 252 290 4,300 -1,020 Descending Houston Center
05:49PM 30.8603 -88.4467 134° Southeast 246 283 3,400 -840 Descending Houston Center
05:50PM 30.8053 -88.3806 134° Southeast 243 280 2,600 -720 Descending Houston Center
05:51PM 30.7714 -88.3258 126° Southeast 226 260 2,000 -660 Descending Houston Center
05:52PM 30.7439 -88.2853 128° Southeast 188 216 1,300 -720 Descending Houston Center
05:53PM 30.7161 -88.2639 146° Southeast 147 169 600 -540 Descending Houston Center
05:54PM 30.6847 -88.2389 146° Southeast 136 157 300 -300 Descending Houston Center
05:56PM 30.6833 -88.2333 North  Level FlightAware Approximate